PWSweather.com
Personal Weather Stations
Station Observations
KJ4AJP
Beautiful Downtown Gardner, Martin, TN 38237

Beautiful Downtown GardnerMartin, TN 38237

Lat: 36.358, Lon: -88.8994

Elevation: 384.3

Station Type: TP1080WC

http://weather.mambm.com/

High Low Average
Temperature 70.0°F21.1°F 53.4°F11.9°F 58.8°F14.9°F
Dew Point 60.7°F15.9°F 52.0°F11.1°F 55.1°F12.8°F
Winds 6.9 mph SW11.1 mph SW Calm Calm 1.7 mph 2.7 mph
Wind Gusts 15.9 mph25.6 mph 2.2 mph3.5 mph 7.0 mph11.3 mph
Humidity 99% 62% 89%
Pressure 29.92 in1013.20 in 29.82 in1009.80 in -
Precipitation 0.19 in4.80 in - -
Hour Temp Dew Point Humidity Winds Wind Gusts Pressure Precip Precip Rate Daily Precip Total
12:00 AM 57.6°F14.2°C 57.3°F14.1°C 99% Calm Calm 4.5 mph7.2 kmh 29.91 in1012.9 mb 0.01 in0.3 mm 0.00 in0.0 mm 0.01 in0.3 mm
12:15 AM 57.4°F14.1°C 57.1°F13.9°C 99% Calm Calm 3.8 mph6.1 kmh 29.91 in1012.9 mb 0.00 in0.0 mm 0.00 in0.0 mm 0.01 in0.3 mm
12:30 AM 57.0°F13.9°C 56.8°F13.8°C 99% 1.6 mph SW2.6 kmh SW 5.4 mph8.7 kmh 29.91 in1012.9 mb 0.00 in0.0 mm 0.00 in0.0 mm 0.01 in0.3 mm
12:45 AM 56.8°F13.8°C 56.6°F13.7°C 99% 2.2 mph W3.5 kmh W 6.0 mph9.7 kmh 29.91 in1012.9 mb 0.00 in0.0 mm 0.00 in0.0 mm 0.01 in0.3 mm
01:00 AM 56.7°F13.7°C 56.4°F13.6°C 99% Calm Calm 3.8 mph6.1 kmh 29.91 in1012.9 mb 0.00 in0.0 mm 0.00 in0.0 mm 0.01 in0.3 mm
01:15 AM 56.5°F13.6°C 56.2°F13.4°C 99% 3.1 mph W5.0 kmh W 6.9 mph11.1 kmh 29.91 in1012.9 mb 0.00 in0.0 mm 0.00 in0.0 mm 0.01 in0.3 mm
01:30 AM 56.3°F13.5°C 56.0°F13.3°C 99% 1.6 mph W2.6 kmh W 6.9 mph11.1 kmh 29.91 in1012.9 mb 0.00 in0.0 mm 0.00 in0.0 mm 0.01 in0.3 mm
01:45 AM 56.1°F13.4°C 55.9°F13.3°C 99% 2.2 mph NW3.5 kmh NW 6.9 mph11.1 kmh 29.90 in1012.5 mb 0.00 in0.0 mm 0.00 in0.0 mm 0.01 in0.3 mm
02:00 AM 56.1°F13.4°C 55.9°F13.3°C 99% Calm Calm 6.0 mph9.7 kmh 29.89 in1012.2 mb 0.00 in0.0 mm 0.00 in0.0 mm 0.01 in0.3 mm
02:15 AM 55.9°F13.3°C 55.7°F13.2°C 99% 1.6 mph N2.6 kmh N 6.0 mph9.7 kmh 29.89 in1012.2 mb 0.00 in0.0 mm 0.00 in0.0 mm 0.01 in0.3 mm
02:30 AM 55.8°F13.2°C 55.5°F13.1°C 99% 5.4 mph WSW8.7 kmh WSW 11.4 mph18.3 kmh 29.91 in1012.9 mb 0.00 in0.0 mm 0.00 in0.0 mm 0.01 in0.3 mm
02:45 AM 55.8°F13.2°C 55.5°F13.1°C 99% 0.7 mph NW1.1 kmh NW 4.5 mph7.2 kmh 29.88 in1011.9 mb 0.00 in0.0 mm 0.00 in0.0 mm 0.01 in0.3 mm
03:00 AM 55.6°F13.1°C 55.3°F12.9°C 99% 1.6 mph WNW2.6 kmh WNW 6.9 mph11.1 kmh 29.87 in1011.5 mb 0.00 in0.0 mm 0.00 in0.0 mm 0.01 in0.3 mm
03:15 AM 55.4°F13.0°C 55.1°F12.8°C 99% Calm Calm 6.0 mph9.7 kmh 29.87 in1011.5 mb 0.00 in0.0 mm 0.00 in0.0 mm 0.01 in0.3 mm
03:30 AM 55.2°F12.9°C 55.0°F12.8°C 99% 0.7 mph W1.1 kmh W 8.3 mph13.4 kmh 29.87 in1011.5 mb 0.01 in0.3 mm 0.04 in1.0 mm 0.01 in0.3 mm
03:45 AM 55.2°F12.9°C 55.0°F12.8°C 99% Calm Calm 3.8 mph6.1 kmh 29.89 in1012.2 mb 0.01 in0.3 mm 0.00 in0.0 mm 0.01 in0.3 mm
04:00 AM 55.2°F12.9°C 55.0°F12.8°C 99% Calm Calm 5.4 mph8.7 kmh 29.89 in1012.2 mb 0.01 in0.3 mm 0.00 in0.0 mm 0.01 in0.3 mm
04:15 AM 55.0°F12.8°C 54.8°F12.7°C 99% Calm Calm 3.8 mph6.1 kmh 29.88 in1011.9 mb 0.01 in0.3 mm 0.00 in0.0 mm 0.01 in0.3 mm
04:30 AM 55.0°F12.8°C 54.8°F12.7°C 99% Calm Calm 3.1 mph5.0 kmh 29.88 in1011.9 mb 0.00 in0.0 mm 0.00 in0.0 mm 0.01 in0.3 mm
04:45 AM 54.9°F12.7°C 54.6°F12.6°C 99% 1.6 mph WSW2.6 kmh WSW 3.8 mph6.1 kmh 29.88 in1011.9 mb 0.00 in0.0 mm 0.00 in0.0 mm 0.01 in0.3 mm
05:00 AM 54.9°F12.7°C 54.6°F12.6°C 99% 0.7 mph WNW1.1 kmh WNW 8.3 mph13.4 kmh 29.88 in1011.9 mb 0.00 in0.0 mm 0.00 in0.0 mm 0.01 in0.3 mm
05:15 AM 54.5°F12.5°C 54.2°F12.3°C 99% 0.7 mph WNW1.1 kmh WNW 8.3 mph13.4 kmh 29.88 in1011.9 mb 0.00 in0.0 mm 0.00 in0.0 mm 0.01 in0.3 mm
05:30 AM 54.1°F12.3°C 53.9°F12.2°C 99% 2.2 mph NW3.5 kmh NW 6.9 mph11.1 kmh 29.87 in1011.5 mb 0.00 in0.0 mm 0.00 in0.0 mm 0.01 in0.3 mm
05:45 AM 54.0°F12.2°C 53.7°F12.1°C 99% 1.6 mph NW2.6 kmh NW 6.0 mph9.7 kmh 29.88 in1011.9 mb 0.00 in0.0 mm 0.00 in0.0 mm 0.01 in0.3 mm
06:00 AM 54.0°F12.2°C 53.7°F12.1°C 99% Calm Calm 3.1 mph5.0 kmh 29.88 in1011.9 mb 0.00 in0.0 mm 0.00 in0.0 mm 0.01 in0.3 mm
06:15 AM 54.0°F12.2°C 53.7°F12.1°C 99% Calm Calm 3.8 mph6.1 kmh 29.87 in1011.5 mb 0.00 in0.0 mm 0.00 in0.0 mm 0.01 in0.3 mm
06:30 AM 54.0°F12.2°C 53.7°F12.1°C 99% Calm Calm 6.0 mph9.7 kmh 29.88 in1011.9 mb 0.00 in0.0 mm 0.00 in0.0 mm 0.01 in0.3 mm
06:45 AM 54.0°F12.2°C 53.7°F12.1°C 99% 0.7 mph W1.1 kmh W 6.0 mph9.7 kmh 29.88 in1011.9 mb 0.00 in0.0 mm 0.00 in0.0 mm 0.01 in0.3 mm
07:00 AM 53.8°F12.1°C 53.5°F11.9°C 99% 2.2 mph W3.5 kmh W 6.0 mph9.7 kmh 29.88 in1011.9 mb 0.00 in0.0 mm 0.00 in0.0 mm 0.01 in0.3 mm
07:15 AM 53.6°F12.0°C 53.3°F11.8°C 99% 1.6 mph W2.6 kmh W 6.0 mph9.7 kmh 29.88 in1011.9 mb 0.01 in0.3 mm 0.04 in1.0 mm 0.02 in0.5 mm
07:30 AM 53.4°F11.9°C 53.2°F11.8°C 99% 1.6 mph WNW2.6 kmh WNW 10.7 mph17.2 kmh 29.88 in1011.9 mb 0.01 in0.3 mm 0.00 in0.0 mm 0.02 in0.5 mm
07:45 AM 53.4°F11.9°C 53.2°F11.8°C 99% Calm Calm 4.5 mph7.2 kmh 29.88 in1011.9 mb 0.01 in0.3 mm 0.00 in0.0 mm 0.02 in0.5 mm
08:00 AM 53.4°F11.9°C 53.2°F11.8°C 99% 0.7 mph NW1.1 kmh NW 3.8 mph6.1 kmh 29.89 in1012.2 mb 0.00 in0.0 mm 0.00 in0.0 mm 0.02 in0.5 mm
08:15 AM 53.6°F12.0°C 53.3°F11.8°C 99% Calm Calm 2.2 mph3.5 kmh 29.89 in1012.2 mb 0.00 in0.0 mm 0.00 in0.0 mm 0.02 in0.5 mm
08:30 AM 53.8°F12.1°C 53.5°F11.9°C 99% Calm Calm 3.8 mph6.1 kmh 29.89 in1012.2 mb 0.00 in0.0 mm 0.00 in0.0 mm 0.02 in0.5 mm
08:45 AM 54.0°F12.2°C 53.7°F12.1°C 99% Calm Calm 3.8 mph6.1 kmh 29.89 in1012.2 mb 0.00 in0.0 mm 0.00 in0.0 mm 0.02 in0.5 mm
09:00 AM 54.5°F12.5°C 54.2°F12.3°C 99% 0.7 mph WSW1.1 kmh WSW 4.5 mph7.2 kmh 29.90 in1012.5 mb 0.00 in0.0 mm 0.00 in0.0 mm 0.02 in0.5 mm
09:15 AM 54.7°F12.6°C 54.4°F12.4°C 99% 1.6 mph W2.6 kmh W 5.4 mph8.7 kmh 29.89 in1012.2 mb 0.00 in0.0 mm 0.00 in0.0 mm 0.02 in0.5 mm
09:30 AM 54.7°F12.6°C 54.4°F12.4°C 99% 2.2 mph WNW3.5 kmh WNW 6.0 mph9.7 kmh 29.90 in1012.5 mb 0.00 in0.0 mm 0.00 in0.0 mm 0.02 in0.5 mm
09:45 AM 54.5°F12.5°C 54.2°F12.3°C 99% 1.6 mph NW2.6 kmh NW 11.4 mph18.3 kmh 29.90 in1012.5 mb 0.01 in0.3 mm 0.04 in1.0 mm 0.04 in1.0 mm
10:00 AM 54.7°F12.6°C 54.4°F12.4°C 99% 3.1 mph WNW5.0 kmh WNW 6.0 mph9.7 kmh 29.90 in1012.5 mb 0.01 in0.3 mm 0.00 in0.0 mm 0.04 in1.0 mm
10:15 AM 54.7°F12.6°C 54.4°F12.4°C 99% 3.8 mph WSW6.1 kmh WSW 9.2 mph14.8 kmh 29.90 in1012.5 mb 0.01 in0.3 mm 0.00 in0.0 mm 0.04 in1.0 mm
10:30 AM 54.5°F12.5°C 54.2°F12.3°C 99% 2.2 mph NW3.5 kmh NW 11.4 mph18.3 kmh 29.92 in1013.2 mb 0.01 in0.3 mm 0.00 in0.0 mm 0.04 in1.0 mm
10:45 AM 54.5°F12.5°C 54.2°F12.3°C 99% 1.6 mph NW2.6 kmh NW 9.2 mph14.8 kmh 29.92 in1013.2 mb 0.00 in0.0 mm 0.00 in0.0 mm 0.04 in1.0 mm
11:00 AM 54.5°F12.5°C 54.2°F12.3°C 99% 0.7 mph NW1.1 kmh NW 6.0 mph9.7 kmh 29.92 in1013.2 mb 0.01 in0.3 mm 0.01 in0.3 mm 0.05 in1.3 mm
11:15 AM 55.0°F12.8°C 54.8°F12.7°C 99% 4.5 mph WSW7.2 kmh WSW 13.6 mph21.9 kmh 29.92 in1013.2 mb 0.02 in0.5 mm 0.04 in1.0 mm 0.06 in1.5 mm
11:30 AM 55.6°F13.1°C 55.3°F12.9°C 99% 2.2 mph SW3.5 kmh SW 9.8 mph15.8 kmh 29.92 in1013.2 mb 0.02 in0.5 mm 0.00 in0.0 mm 0.06 in1.5 mm
11:45 AM 56.5°F13.6°C 56.2°F13.4°C 99% 1.6 mph WSW2.6 kmh WSW 12.1 mph19.5 kmh 29.92 in1013.2 mb 0.01 in0.3 mm 0.00 in0.0 mm 0.06 in1.5 mm
12:00 PM 57.0°F13.9°C 56.8°F13.8°C 99% 0.7 mph WSW1.1 kmh WSW 7.6 mph12.2 kmh 29.91 in1012.9 mb 0.01 in0.3 mm 0.00 in0.0 mm 0.06 in1.5 mm
12:15 PM 59.0°F15.0°C 58.7°F14.8°C 99% 3.1 mph WSW5.0 kmh WSW 10.7 mph17.2 kmh 29.92 in1013.2 mb 0.00 in0.0 mm 0.00 in0.0 mm 0.06 in1.5 mm
12:30 PM 60.6°F15.9°C 60.1°F15.6°C 98% 1.6 mph WSW2.6 kmh WSW 13.6 mph21.9 kmh 29.91 in1012.9 mb 0.00 in0.0 mm 0.00 in0.0 mm 0.06 in1.5 mm
12:45 PM 62.8°F17.1°C 60.7°F15.9°C 93% 2.2 mph NNW3.5 kmh NNW 13.6 mph21.9 kmh 29.92 in1013.2 mb 0.00 in0.0 mm 0.00 in0.0 mm 0.06 in1.5 mm
01:00 PM 63.7°F17.6°C 59.4°F15.2°C 86% 1.6 mph W2.6 kmh W 9.2 mph14.8 kmh 29.91 in1012.9 mb 0.00 in0.0 mm 0.00 in0.0 mm 0.06 in1.5 mm
01:15 PM 66.0°F18.9°C 60.7°F15.9°C 83% 3.1 mph NW5.0 kmh NW 7.6 mph12.2 kmh 29.91 in1012.9 mb 0.00 in0.0 mm 0.00 in0.0 mm 0.06 in1.5 mm
01:30 PM 66.9°F19.4°C 59.9°F15.5°C 78% 1.6 mph NW2.6 kmh NW 9.8 mph15.8 kmh 29.90 in1012.5 mb 0.00 in0.0 mm 0.00 in0.0 mm 0.06 in1.5 mm
01:45 PM 66.7°F19.3°C 58.6°F14.8°C 75% Calm Calm 8.3 mph13.4 kmh 29.89 in1012.2 mb 0.00 in0.0 mm 0.00 in0.0 mm 0.06 in1.5 mm
02:00 PM 67.1°F19.5°C 57.8°F14.3°C 72% 1.6 mph W2.6 kmh W 9.8 mph15.8 kmh 29.89 in1012.2 mb 0.00 in0.0 mm 0.00 in0.0 mm 0.06 in1.5 mm
02:15 PM 66.9°F19.4°C 57.2°F14.0°C 71% 0.7 mph NNW1.1 kmh NNW 6.9 mph11.1 kmh 29.88 in1011.9 mb 0.00 in0.0 mm 0.00 in0.0 mm 0.06 in1.5 mm
02:30 PM 67.3°F19.6°C 56.4°F13.6°C 68% 2.2 mph NW3.5 kmh NW 9.2 mph14.8 kmh 29.88 in1011.9 mb 0.00 in0.0 mm 0.00 in0.0 mm 0.06 in1.5 mm
02:45 PM 68.4°F20.2°C 57.0°F13.9°C 67% 1.6 mph NW2.6 kmh NW 6.0 mph9.7 kmh 29.86 in1011.2 mb 0.00 in0.0 mm 0.00 in0.0 mm 0.06 in1.5 mm
03:00 PM 69.3°F20.7°C 57.4°F14.1°C 66% 4.5 mph WNW7.2 kmh WNW 8.3 mph13.4 kmh 29.86 in1011.2 mb 0.00 in0.0 mm 0.00 in0.0 mm 0.06 in1.5 mm
03:15 PM 69.4°F20.8°C 58.0°F14.4°C 67% 3.1 mph SSW5.0 kmh SSW 9.8 mph15.8 kmh 29.87 in1011.5 mb 0.00 in0.0 mm 0.00 in0.0 mm 0.06 in1.5 mm
03:30 PM 69.6°F20.9°C 57.8°F14.3°C 66% 1.6 mph W2.6 kmh W 5.4 mph8.7 kmh 29.86 in1011.2 mb 0.00 in0.0 mm 0.00 in0.0 mm 0.06 in1.5 mm
03:45 PM 69.4°F20.8°C 57.2°F14.0°C 65% 0.7 mph WSW1.1 kmh WSW 6.0 mph9.7 kmh 29.86 in1011.2 mb 0.00 in0.0 mm 0.00 in0.0 mm 0.06 in1.5 mm
04:00 PM 70.0°F21.1°C 57.7°F14.3°C 65% 2.2 mph WSW3.5 kmh WSW 6.9 mph11.1 kmh 29.85 in1010.8 mb 0.00 in0.0 mm 0.00 in0.0 mm 0.06 in1.5 mm
04:15 PM 69.6°F20.9°C 56.0°F13.3°C 62% 3.1 mph SW5.0 kmh SW 8.3 mph13.4 kmh 29.85 in1010.8 mb 0.00 in0.0 mm 0.00 in0.0 mm 0.06 in1.5 mm
04:30 PM 69.6°F20.9°C 56.5°F13.6°C 63% 2.2 mph SW3.5 kmh SW 8.3 mph13.4 kmh 29.86 in1011.2 mb 0.00 in0.0 mm 0.00 in0.0 mm 0.06 in1.5 mm
04:45 PM 69.4°F20.8°C 56.3°F13.5°C 63% 2.2 mph SW3.5 kmh SW 8.3 mph13.4 kmh 29.85 in1010.8 mb 0.00 in0.0 mm 0.00 in0.0 mm 0.06 in1.5 mm
05:00 PM 69.1°F20.6°C 56.4°F13.6°C 64% 3.8 mph SW6.1 kmh SW 8.3 mph13.4 kmh 29.85 in1010.8 mb 0.00 in0.0 mm 0.00 in0.0 mm 0.06 in1.5 mm
05:15 PM 68.4°F20.2°C 55.7°F13.2°C 64% 6.0 mph SSW9.7 kmh SSW 9.2 mph14.8 kmh 29.84 in1010.5 mb 0.00 in0.0 mm 0.00 in0.0 mm 0.06 in1.5 mm
05:30 PM 67.3°F19.6°C 54.7°F12.6°C 64% 2.2 mph SW3.5 kmh SW 9.2 mph14.8 kmh 29.83 in1010.2 mb 0.00 in0.0 mm 0.00 in0.0 mm 0.06 in1.5 mm
05:45 PM 66.2°F19.0°C 54.9°F12.7°C 67% Calm Calm 3.1 mph5.0 kmh 29.84 in1010.5 mb 0.00 in0.0 mm 0.00 in0.0 mm 0.06 in1.5 mm
06:00 PM 64.4°F18.0°C 54.0°F12.2°C 69% 2.2 mph SSW3.5 kmh SSW 6.0 mph9.7 kmh 29.84 in1010.5 mb 0.00 in0.0 mm 0.00 in0.0 mm 0.06 in1.5 mm
06:15 PM 62.6°F17.0°C 53.5°F11.9°C 72% 1.6 mph SE2.6 kmh SE 6.0 mph9.7 kmh 29.83 in1010.2 mb 0.00 in0.0 mm 0.00 in0.0 mm 0.06 in1.5 mm
06:30 PM 61.2°F16.2°C 53.2°F11.8°C 75% 1.6 mph S2.6 kmh S 3.1 mph5.0 kmh 29.83 in1010.2 mb 0.00 in0.0 mm 0.00 in0.0 mm 0.06 in1.5 mm
06:45 PM 59.7°F15.4°C 52.5°F11.4°C 77% 0.7 mph SSE1.1 kmh SSE 3.1 mph5.0 kmh 29.84 in1010.5 mb 0.00 in0.0 mm 0.00 in0.0 mm 0.06 in1.5 mm
07:00 PM 58.5°F14.7°C 52.3°F11.3°C 80% 2.2 mph S3.5 kmh S 3.8 mph6.1 kmh 29.84 in1010.5 mb 0.00 in0.0 mm 0.00 in0.0 mm 0.06 in1.5 mm
07:15 PM 57.6°F14.2°C 52.1°F11.2°C 82% 0.7 mph S1.1 kmh S 3.8 mph6.1 kmh 29.84 in1010.5 mb 0.00 in0.0 mm 0.00 in0.0 mm 0.06 in1.5 mm
07:30 PM 56.8°F13.8°C 52.1°F11.2°C 84% 0.7 mph S1.1 kmh S 5.4 mph8.7 kmh 29.84 in1010.5 mb 0.00 in0.0 mm 0.00 in0.0 mm 0.06 in1.5 mm
07:45 PM 56.5°F13.6°C 52.0°F11.1°C 85% 0.7 mph SE1.1 kmh SE 4.5 mph7.2 kmh 29.84 in1010.5 mb 0.00 in0.0 mm 0.00 in0.0 mm 0.06 in1.5 mm
08:00 PM 56.3°F13.5°C 52.2°F11.2°C 86% 2.2 mph S3.5 kmh S 6.0 mph9.7 kmh 29.83 in1010.2 mb 0.00 in0.0 mm 0.00 in0.0 mm 0.06 in1.5 mm
08:15 PM 56.5°F13.6°C 52.4°F11.3°C 86% 1.6 mph SSE2.6 kmh SSE 6.0 mph9.7 kmh 29.84 in1010.5 mb 0.00 in0.0 mm 0.00 in0.0 mm 0.06 in1.5 mm
08:30 PM 56.3°F13.5°C 52.2°F11.2°C 86% 3.1 mph SE5.0 kmh SE 6.9 mph11.1 kmh 29.83 in1010.2 mb 0.00 in0.0 mm 0.00 in0.0 mm 0.06 in1.5 mm
08:45 PM 56.5°F13.6°C 52.4°F11.3°C 86% 2.2 mph S3.5 kmh S 6.9 mph11.1 kmh 29.83 in1010.2 mb 0.00 in0.0 mm 0.00 in0.0 mm 0.06 in1.5 mm
09:00 PM 56.5°F13.6°C 52.4°F11.3°C 86% 3.1 mph S5.0 kmh S 8.3 mph13.4 kmh 29.82 in1009.8 mb 0.00 in0.0 mm 0.00 in0.0 mm 0.06 in1.5 mm
09:15 PM 56.7°F13.7°C 52.5°F11.4°C 86% 2.2 mph S3.5 kmh S 9.2 mph14.8 kmh 29.82 in1009.8 mb 0.00 in0.0 mm 0.00 in0.0 mm 0.06 in1.5 mm
09:30 PM 56.7°F13.7°C 52.5°F11.4°C 86% 3.1 mph SSW5.0 kmh SSW 9.2 mph14.8 kmh 29.82 in1009.8 mb 0.00 in0.0 mm 0.00 in0.0 mm 0.06 in1.5 mm
09:45 PM 57.4°F14.1°C 52.9°F11.6°C 85% 6.9 mph SW11.1 kmh SW 10.7 mph17.2 kmh 29.84 in1010.5 mb 0.00 in0.0 mm 0.00 in0.0 mm 0.06 in1.5 mm
10:00 PM 59.2°F15.1°C 53.7°F12.1°C 82% 6.0 mph SW9.7 kmh SW 14.5 mph23.3 kmh 29.83 in1010.2 mb 0.00 in0.0 mm 0.00 in0.0 mm 0.06 in1.5 mm
10:15 PM 59.9°F15.5°C 54.1°F12.3°C 81% 4.5 mph WSW7.2 kmh WSW 15.9 mph25.6 kmh 29.84 in1010.5 mb 0.00 in0.0 mm 0.00 in0.0 mm 0.06 in1.5 mm
10:30 PM 60.4°F15.8°C 54.9°F12.7°C 82% 1.6 mph W2.6 kmh W 8.3 mph13.4 kmh 29.85 in1010.8 mb 0.00 in0.0 mm 0.00 in0.0 mm 0.06 in1.5 mm
10:45 PM 60.1°F15.6°C 54.9°F12.7°C 83% Calm Calm 3.8 mph6.1 kmh 29.85 in1010.8 mb 0.00 in0.0 mm 0.00 in0.0 mm 0.06 in1.5 mm
11:00 PM 59.7°F15.4°C 54.9°F12.7°C 84% 1.6 mph NW2.6 kmh NW 3.8 mph6.1 kmh 29.86 in1011.2 mb 0.00 in0.0 mm 0.00 in0.0 mm 0.06 in1.5 mm
11:15 PM 59.0°F15.0°C 54.5°F12.5°C 85% 2.2 mph NW3.5 kmh NW 9.2 mph14.8 kmh 29.86 in1011.2 mb 0.00 in0.0 mm 0.00 in0.0 mm 0.06 in1.5 mm
11:30 PM 58.5°F14.7°C 54.0°F12.2°C 85% Calm Calm 3.8 mph6.1 kmh 29.86 in1011.2 mb 0.00 in0.0 mm 0.00 in0.0 mm 0.06 in1.5 mm
11:45 PM 58.3°F14.6°C 54.1°F12.3°C 86% 2.2 mph NW3.5 kmh NW 6.0 mph9.7 kmh 29.86 in1011.2 mb 0.00 in0.0 mm 0.00 in0.0 mm 0.06 in1.5 mm